Time;durP1;ratioP1;P1;durP2;ratioP2;P2;SDS_P1;SDS_P2;PMS_P1;PMS_P2;Temp;Humidity;BMP_temperature;BMP_pressure;BME280_temperature;BME280_humidity;BME280_pressure;Samples;Min_cycle;Max_cycle;Signal;HPM_P1;HPM_P2
2023/01/18 00:01:34;;;;;;;11.90;6.83;;;2.20;99.90;;;;;;5115907;28;20612;-73
2023/01/18 00:04:03;;;;;;;12.67;7.97;;;2.20;99.90;;;;;;5116015;28;20717;-72
2023/01/18 00:06:32;;;;;;;16.23;8.23;;;2.20;99.90;;;;;;5116323;28;20220;-72
2023/01/18 00:09:01;;;;;;;11.40;7.77;;;2.20;99.90;;;;;;5116080;28;20193;-71
2023/01/18 00:11:30;;;;;;;15.23;8.13;;;2.20;99.90;;;;;;5115827;28;20271;-72
2023/01/18 00:14:01;;;;;;;14.47;7.90;;;2.10;99.90;;;;;;5115967;28;20253;-72
2023/01/18 00:16:30;;;;;;;26.73;10.20;;;2.00;99.90;;;;;;5115843;28;20194;-74
2023/01/18 00:19:00;;;;;;;19.37;10.00;;;1.90;99.90;;;;;;5097463;28;20633;-72
2023/01/18 00:21:29;;;;;;;18.70;9.27;;;2.00;99.90;;;;;;5115701;28;20587;-72
2023/01/18 00:23:58;;;;;;;16.00;8.53;;;1.90;99.90;;;;;;5115677;28;20498;-72
2023/01/18 00:26:27;;;;;;;19.17;8.53;;;1.90;99.90;;;;;;5115519;28;20560;-74
2023/01/18 00:28:56;;;;;;;25.57;10.23;;;1.90;99.90;;;;;;5115663;28;20240;-72
2023/01/18 00:31:27;;;;;;;22.50;10.73;;;1.90;99.90;;;;;;5115484;28;20199;-72
2023/01/18 00:33:55;;;;;;;28.60;10.17;;;1.80;99.90;;;;;;5115502;28;20188;-74
2023/01/18 00:36:25;;;;;;;16.37;9.40;;;1.80;99.90;;;;;;5114484;28;20209;-72
2023/01/18 00:38:53;;;;;;;14.83;9.03;;;1.60;99.90;;;;;;5107270;28;20271;-72
2023/01/18 00:41:23;;;;;;;16.27;9.00;;;1.60;99.90;;;;;;5115019;28;20265;-72
2023/01/18 00:43:51;;;;;;;13.03;8.70;;;1.70;99.90;;;;;;5115256;28;20676;-73
2023/01/18 00:46:22;;;;;;;12.43;8.10;;;1.70;99.90;;;;;;5115204;28;20199;-73
2023/01/18 00:48:54;;;;;;;11.60;8.03;;;1.70;99.90;;;;;;5115318;28;20737;-73
2023/01/18 00:51:25;;;;;;;11.00;7.63;;;1.70;99.90;;;;;;5115282;28;20186;-72
2023/01/18 00:53:54;;;;;;;12.93;8.27;;;1.60;99.90;;;;;;5114895;28;20208;-73
2023/01/18 00:56:23;;;;;;;12.93;7.17;;;1.60;99.90;;;;;;5114631;28;20194;-73
2023/01/18 00:58:52;;;;;;;11.90;8.13;;;1.60;99.90;;;;;;5115076;28;20192;-73
2023/01/18 01:01:21;;;;;;;9.93;6.67;;;1.60;99.90;;;;;;5114911;28;20189;-73
2023/01/18 01:06:50;;;;;;;8.37;5.40;;;1.50;99.90;;;;;;5096397;28;20208;-72
2023/01/18 01:09:22;;;;;;;9.27;5.97;;;1.30;99.90;;;;;;5114713;28;20195;-72
2023/01/18 01:26:07;;;;;;;9.00;6.40;;;1.00;99.90;;;;;;5114380;28;20203;-72
2023/01/18 01:28:37;;;;;;;9.93;7.00;;;1.00;99.90;;;;;;5095712;28;20217;-71
2023/01/18 01:31:07;;;;;;;13.70;8.57;;;1.10;99.90;;;;;;5114406;28;20681;-71
2023/01/18 01:33:37;;;;;;;22.77;12.33;;;1.00;99.90;;;;;;5114422;28;20195;-72
2023/01/18 01:36:09;;;;;;;19.50;11.17;;;1.00;99.90;;;;;;5114553;28;20199;-73
2023/01/18 01:38:40;;;;;;;17.77;9.97;;;0.80;99.90;;;;;;5114428;28;20196;-72
2023/01/18 01:41:13;;;;;;;20.47;11.00;;;0.70;99.90;;;;;;5113790;28;20237;-72
2023/01/18 01:43:46;;;;;;;20.10;10.73;;;0.70;99.90;;;;;;5114167;28;20220;-72
2023/01/18 01:46:41;;;;;;;20.83;12.13;;;0.90;99.90;;;;;;5108779;28;20673;-71
2023/01/18 01:49:13;;;;;;;16.27;10.60;;;0.90;99.90;;;;;;5114081;28;20203;-73
2023/01/18 01:51:46;;;;;;;13.20;9.10;;;0.90;99.90;;;;;;5095561;28;20295;-73
2023/01/18 01:54:19;;;;;;;15.67;9.97;;;0.90;99.90;;;;;;5113914;28;20220;-73
2023/01/18 01:56:51;;;;;;;13.00;7.50;;;0.90;99.90;;;;;;5113902;28;20187;-73
2023/01/18 01:59:20;;;;;;;10.27;6.27;;;0.80;99.90;;;;;;5113827;28;20766;-73
2023/01/18 02:01:49;;;;;;;8.43;6.83;;;0.80;99.90;;;;;;5113793;28;20210;-72
2023/01/18 02:04:19;;;;;;;11.20;6.07;;;0.90;99.90;;;;;;5113827;28;20559;-73
2023/01/18 02:06:49;;;;;;;7.10;6.13;;;0.90;99.90;;;;;;5095562;28;20615;-72
2023/01/18 02:09:22;;;;;;;6.50;5.43;;;0.90;99.90;;;;;;5113796;28;20241;-72
2023/01/18 02:11:53;;;;;;;8.57;6.07;;;1.00;99.90;;;;;;5113655;28;20234;-72
2023/01/18 02:14:25;;;;;;;7.27;5.87;;;1.10;99.90;;;;;;5113634;28;20223;-74
2023/01/18 02:17:06;;;;;;;8.10;6.00;;;1.10;99.90;;;;;;5113593;28;20222;-72
2023/01/18 02:20:00;;;;;;;7.13;5.70;;;1.10;99.90;;;;;;5113338;28;20657;-72
2023/01/18 02:22:51;;;;;;;7.60;5.93;;;1.20;99.90;;;;;;5113462;28;20294;-72
2023/01/18 02:25:51;;;;;;;11.07;7.07;;;1.20;99.90;;;;;;5113418;28;20200;-73
2023/01/18 02:28:24;;;;;;;12.67;7.23;;;1.20;99.90;;;;;;5110499;28;20208;-72
2023/01/18 02:30:58;;;;;;;13.43;8.03;;;1.20;99.90;;;;;;5113364;28;20192;-72
2023/01/18 02:33:36;;;;;;;9.53;7.60;;;1.10;99.90;;;;;;5113218;28;20192;-73
2023/01/18 02:36:06;;;;;;;11.77;7.40;;;1.00;99.90;;;;;;5113266;28;20194;-75
2023/01/18 02:38:40;;;;;;;11.37;8.13;;;1.00;99.90;;;;;;5113172;28;20677;-72
2023/01/18 02:41:16;;;;;;;13.47;7.43;;;1.00;99.90;;;;;;5112575;28;20271;-72
2023/01/18 02:46:39;;;;;;;12.50;8.77;;;1.00;99.90;;;;;;5112940;28;20191;-72
2023/01/18 02:49:10;;;;;;;11.23;7.63;;;1.00;99.90;;;;;;5112974;28;20268;-72
2023/01/18 02:51:39;;;;;;;12.10;7.67;;;1.00;99.90;;;;;;5112955;28;20661;-73
2023/01/18 02:54:09;;;;;;;9.83;7.53;;;0.90;99.90;;;;;;5112502;28;20618;-72
2023/01/18 02:56:41;;;;;;;9.57;6.37;;;0.90;99.90;;;;;;5112756;28;20192;-74
2023/01/18 02:59:15;;;;;;;11.00;8.13;;;0.90;99.90;;;;;;5112244;28;20195;-73
2023/01/18 03:01:47;;;;;;;10.00;7.50;;;0.90;99.90;;;;;;5112493;28;20211;-72
2023/01/18 03:04:19;;;;;;;12.97;7.03;;;0.90;99.90;;;;;;5112611;28;20702;-72
2023/01/18 03:06:56;;;;;;;10.37;8.00;;;0.90;99.90;;;;;;5112648;28;20203;-72
2023/01/18 03:09:29;;;;;;;12.80;7.63;;;0.80;99.90;;;;;;5112754;28;20196;-72
2023/01/18 03:12:06;;;;;;;11.43;7.73;;;0.80;99.90;;;;;;5112292;28;20216;-71
2023/01/18 03:14:46;;;;;;;10.37;7.67;;;0.80;99.90;;;;;;5112678;28;20560;-75
2023/01/18 03:17:21;;;;;;;11.73;7.87;;;0.80;99.90;;;;;;5112530;28;20226;-71
2023/01/18 03:20:07;;;;;;;10.40;7.17;;;0.80;99.90;;;;;;5104166;28;20195;-71
2023/01/18 03:25:33;;;;;;;11.27;6.87;;;0.80;99.90;;;;;;5112609;28;20196;-71
2023/01/18 03:33:47;;;;;;;8.83;6.23;;;0.60;99.90;;;;;;5112477;28;20195;-70
2023/01/18 03:36:23;;;;;;;9.07;6.60;;;0.60;99.90;;;;;;5112753;28;20274;-71
2023/01/18 03:38:56;;;;;;;8.00;6.10;;;0.50;99.90;;;;;;5112690;28;20278;-71
2023/01/18 03:41:28;;;;;;;10.63;6.87;;;0.40;99.90;;;;;;5112384;28;20192;-71
2023/01/18 03:44:00;;;;;;;12.23;7.77;;;0.40;99.90;;;;;;5112370;28;20298;-71
2023/01/18 03:46:33;;;;;;;11.40;7.33;;;0.40;99.90;;;;;;5112336;28;20279;-70
2023/01/18 03:49:02;;;;;;;12.33;7.73;;;0.40;99.90;;;;;;5112373;28;20200;-71
2023/01/18 03:51:46;;;;;;;12.37;8.00;;;0.50;99.90;;;;;;5112518;28;20187;-72
2023/01/18 03:54:21;;;;;;;11.77;7.03;;;0.50;99.90;;;;;;5112112;28;20230;-71
2023/01/18 03:56:54;;;;;;;10.60;7.00;;;0.60;99.90;;;;;;5112093;28;20198;-70
2023/01/18 03:59:24;;;;;;;7.03;6.33;;;0.70;99.90;;;;;;5112081;28;20192;-71
2023/01/18 04:01:54;;;;;;;10.70;6.30;;;0.70;99.90;;;;;;5112114;28;20650;-72
2023/01/18 04:04:23;;;;;;;8.33;6.80;;;0.60;99.90;;;;;;5111989;28;20716;-71
2023/01/18 04:06:52;;;;;;;10.83;7.77;;;0.40;99.90;;;;;;5112107;28;20219;-71
2023/01/18 04:09:21;;;;;;;10.53;6.73;;;0.50;99.90;;;;;;5112032;28;20222;-70
2023/01/18 04:11:50;;;;;;;13.13;8.07;;;0.60;99.90;;;;;;5115869;28;20184;-71
2023/01/18 04:14:19;;;;;;;12.53;8.37;;;0.60;99.90;;;;;;5115974;28;20195;-71
2023/01/18 04:16:48;;;;;;;12.30;8.80;;;0.60;99.90;;;;;;5115946;28;20229;-71
2023/01/18 04:19:19;;;;;;;13.90;9.83;;;0.70;99.90;;;;;;5115850;28;20561;-72
2023/01/18 04:21:47;;;;;;;15.30;8.77;;;0.80;99.90;;;;;;5115834;28;20658;-71
2023/01/18 04:24:16;;;;;;;12.87;8.63;;;0.80;99.90;;;;;;5115748;28;20239;-71
2023/01/18 04:26:45;;;;;;;12.57;7.20;;;0.70;99.90;;;;;;5115666;28;20187;-71
2023/01/18 04:29:14;;;;;;;11.00;7.27;;;0.60;99.90;;;;;;5115646;28;20191;-71
2023/01/18 04:31:43;;;;;;;12.50;8.77;;;0.60;99.90;;;;;;5115733;28;20191;-71
2023/01/18 04:34:12;;;;;;;13.40;10.17;;;0.60;99.90;;;;;;5115583;28;20634;-70
2023/01/18 04:36:43;;;;;;;19.80;8.60;;;0.60;99.90;;;;;;5115565;28;20195;-70
2023/01/18 04:39:13;;;;;;;11.90;8.47;;;0.70;99.90;;;;;;5115460;28;20192;-70
2023/01/18 04:41:43;;;;;;;14.67;9.63;;;0.70;99.90;;;;;;5115398;28;20191;-71
2023/01/18 04:44:13;;;;;;;10.87;8.90;;;0.70;99.90;;;;;;5115206;28;20215;-71
2023/01/18 04:46:41;;;;;;;12.27;8.80;;;0.60;99.90;;;;;;5115272;28;20241;-71
2023/01/18 04:49:14;;;;;;;14.33;9.40;;;0.60;99.90;;;;;;5115676;28;20196;-70
2023/01/18 04:51:45;;;;;;;14.47;9.30;;;0.60;99.90;;;;;;5115036;28;20187;-70
2023/01/18 04:54:17;;;;;;;13.47;8.77;;;0.70;99.90;;;;;;5115254;28;20306;-72
2023/01/18 04:56:46;;;;;;;15.77;9.33;;;0.70;99.90;;;;;;5115102;28;20191;-71
2023/01/18 04:59:16;;;;;;;15.77;8.27;;;0.70;99.90;;;;;;5115231;28;20606;-72
2023/01/18 05:01:45;;;;;;;15.30;8.57;;;0.80;99.90;;;;;;5115060;28;20195;-72
2023/01/18 05:04:14;;;;;;;11.40;7.87;;;0.80;99.90;;;;;;5114924;28;20285;-71
2023/01/18 05:06:45;;;;;;;13.90;7.70;;;0.80;99.90;;;;;;5115234;28;20192;-73
2023/01/18 05:09:14;;;;;;;18.37;9.97;;;0.80;99.90;;;;;;5114969;28;20203;-71
2023/01/18 05:11:43;;;;;;;14.37;7.83;;;0.50;99.90;;;;;;5115135;28;20192;-71
2023/01/18 05:14:12;;;;;;;9.23;7.47;;;0.40;99.90;;;;;;5096613;28;20602;-71
2023/01/18 05:16:41;;;;;;;10.97;7.90;;;0.30;99.90;;;;;;5114667;28;20206;-71
2023/01/18 05:19:10;;;;;;;9.50;6.23;;;0.30;99.90;;;;;;5114864;28;20597;-72
2023/01/18 05:21:40;;;;;;;9.70;6.77;;;0.40;99.90;;;;;;5113951;28;20287;-70
2023/01/18 05:24:10;;;;;;;9.67;7.03;;;0.40;99.90;;;;;;5114653;28;20238;-71
2023/01/18 05:26:39;;;;;;;11.33;7.57;;;0.60;99.90;;;;;;5114514;28;20192;-71
2023/01/18 05:29:08;;;;;;;8.97;7.70;;;0.60;99.90;;;;;;5114523;28;20306;-73
2023/01/18 05:31:37;;;;;;;13.70;9.30;;;0.50;99.90;;;;;;5114403;28;20199;-73
2023/01/18 05:34:06;;;;;;;56.17;28.20;;;0.50;99.90;;;;;;5114471;28;20196;-70
2023/01/18 05:36:35;;;;;;;18.40;13.07;;;0.60;99.90;;;;;;5114753;28;20630;-70
2023/01/18 05:39:04;;;;;;;12.00;8.77;;;0.70;99.90;;;;;;5114349;28;20188;-71
2023/01/18 05:41:35;;;;;;;11.23;8.57;;;0.70;99.90;;;;;;5114181;28;20192;-70
2023/01/18 05:44:04;;;;;;;11.80;8.63;;;0.70;99.90;;;;;;5113968;28;20235;-71
2023/01/18 05:46:33;;;;;;;14.30;8.30;;;0.70;99.90;;;;;;5114046;28;20191;-72
2023/01/18 05:49:02;;;;;;;11.40;9.00;;;0.70;99.90;;;;;;5114118;28;20565;-71
2023/01/18 05:51:31;;;;;;;13.97;9.53;;;0.70;99.90;;;;;;5114122;28;20199;-73
2023/01/18 05:54:00;;;;;;;14.30;9.00;;;0.70;99.90;;;;;;5113808;28;20268;-70
2023/01/18 05:56:29;;;;;;;12.03;8.70;;;0.50;99.90;;;;;;5114042;28;20184;-70
2023/01/18 05:58:59;;;;;;;12.80;9.17;;;0.40;99.90;;;;;;5113951;28;20311;-71
2023/01/18 06:01:29;;;;;;;16.63;10.07;;;0.40;99.90;;;;;;5113897;28;20198;-71
2023/01/18 06:03:58;;;;;;;12.33;9.53;;;0.50;99.90;;;;;;5113766;28;20187;-72
2023/01/18 06:06:27;;;;;;;14.27;9.10;;;0.40;99.90;;;;;;5113788;28;20192;-72
2023/01/18 06:08:56;;;;;;;14.90;9.37;;;0.40;99.90;;;;;;5113643;28;20184;-70
2023/01/18 06:11:25;;;;;;;13.53;9.47;;;0.40;99.90;;;;;;5113600;28;20266;-71
2023/01/18 06:13:54;;;;;;;12.37;8.17;;;0.20;99.90;;;;;;5105279;28;20216;-71
2023/01/18 06:16:24;;;;;;;14.37;9.43;;;0.20;99.90;;;;;;5113361;28;20717;-71
2023/01/18 06:18:53;;;;;;;14.37;9.93;;;0.10;99.90;;;;;;5113544;28;20249;-71
2023/01/18 06:21:22;;;;;;;12.27;7.90;;;0.20;99.90;;;;;;5113514;28;20248;-71
2023/01/18 06:23:51;;;;;;;12.47;8.23;;;0.30;99.90;;;;;;5113412;28;20192;-71
2023/01/18 06:26:20;;;;;;;14.40;8.20;;;0.30;99.90;;;;;;5113429;28;20219;-71
2023/01/18 06:28:49;;;;;;;12.07;8.37;;;0.30;99.90;;;;;;5113128;28;20188;-70
2023/01/18 06:31:18;;;;;;;18.63;10.40;;;0.30;99.90;;;;;;5113132;28;20579;-72
2023/01/18 06:33:48;;;;;;;12.30;9.50;;;0.40;99.90;;;;;;5112155;28;20197;-71
2023/01/18 06:36:17;;;;;;;15.20;9.87;;;0.50;99.90;;;;;;5113182;28;20718;-72
2023/01/18 06:39:00;;;;;;;12.77;9.00;;;0.40;99.90;;;;;;5111827;28;20211;-72
2023/01/18 06:41:32;;;;;;;15.83;8.93;;;0.30;99.90;;;;;;5112948;28;20187;-71
2023/01/18 06:44:01;;;;;;;13.23;8.17;;;0.30;99.90;;;;;;5113048;28;20192;-70
2023/01/18 06:46:30;;;;;;;16.33;9.33;;;0.30;99.90;;;;;;5112922;28;20195;-71
2023/01/18 06:49:01;;;;;;;12.33;9.30;;;0.40;99.90;;;;;;5112959;28;20190;-71
2023/01/18 06:51:30;;;;;;;12.43;8.73;;;0.60;99.90;;;;;;5094586;28;20226;-71
2023/01/18 06:53:59;;;;;;;10.87;7.93;;;0.60;99.90;;;;;;5112753;28;20211;-71
2023/01/18 06:56:28;;;;;;;17.00;12.00;;;0.70;99.90;;;;;;5112685;28;20192;-71
2023/01/18 06:58:57;;;;;;;15.77;9.80;;;0.70;99.90;;;;;;5112437;28;20573;-71
2023/01/18 07:01:27;;;;;;;11.23;8.33;;;0.60;99.90;;;;;;5112719;28;20823;-71
2023/01/18 07:03:56;;;;;;;11.23;8.30;;;0.40;99.90;;;;;;5112704;28;20200;-74
2023/01/18 07:06:26;;;;;;;9.33;7.70;;;0.30;99.90;;;;;;5112745;28;20215;-71
2023/01/18 07:08:55;;;;;;;13.70;9.17;;;0.30;99.90;;;;;;5112706;28;20302;-70
2023/01/18 07:11:24;;;;;;;14.67;10.00;;;0.40;99.90;;;;;;5112754;28;20232;-72
2023/01/18 07:13:53;;;;;;;15.37;9.30;;;0.40;99.90;;;;;;5112638;28;20215;-73
2023/01/18 07:16:22;;;;;;;15.03;9.30;;;0.50;99.90;;;;;;5112803;28;20219;-76
2023/01/18 07:18:51;;;;;;;17.23;10.30;;;0.50;99.90;;;;;;5094271;28;20552;-74
2023/01/18 07:21:21;;;;;;;22.27;13.97;;;0.70;99.90;;;;;;5112425;28;20188;-75
2023/01/18 07:23:52;;;;;;;21.47;14.50;;;0.70;99.90;;;;;;5111985;28;20191;-72
2023/01/18 07:26:20;;;;;;;20.83;13.43;;;0.80;99.90;;;;;;5127228;28;20223;-71
2023/01/18 07:28:50;;;;;;;32.60;17.80;;;0.80;99.90;;;;;;5115105;28;20290;-77
2023/01/18 07:31:20;;;;;;;20.87;13.80;;;0.80;99.90;;;;;;5129590;28;20191;-70
2023/01/18 07:33:49;;;;;;;20.07;12.43;;;0.90;99.90;;;;;;5133328;28;20195;-77
2023/01/18 07:36:18;;;;;;;21.00;13.67;;;1.00;99.90;;;;;;5133242;28;20243;-72
2023/01/18 07:38:47;;;;;;;20.30;12.53;;;1.00;99.90;;;;;;5132950;28;20193;-72
2023/01/18 07:41:18;;;;;;;18.67;11.57;;;1.00;99.90;;;;;;5125725;28;20181;-71
2023/01/18 07:43:47;;;;;;;18.37;10.30;;;1.10;99.90;;;;;;5112655;28;20195;-70
2023/01/18 07:46:18;;;;;;;18.73;11.97;;;1.10;99.90;;;;;;5115414;28;20598;-72
2023/01/18 07:48:48;;;;;;;18.90;11.80;;;1.10;99.90;;;;;;5116217;28;20565;-72
2023/01/18 07:51:17;;;;;;;23.47;14.07;;;1.10;99.90;;;;;;5116313;28;20188;-74
2023/01/18 07:53:46;;;;;;;16.93;11.23;;;1.10;99.90;;;;;;5116440;28;20223;-74
2023/01/18 07:56:18;;;;;;;20.47;12.03;;;1.30;99.90;;;;;;5127278;27;20230;-74
2023/01/18 07:58:47;;;;;;;18.00;10.87;;;1.30;99.90;;;;;;5116079;28;20183;-74
2023/01/18 08:01:18;;;;;;;21.13;13.37;;;1.40;99.90;;;;;;5118414;27;20677;-74
2023/01/18 08:03:48;;;;;;;19.27;11.60;;;1.40;99.90;;;;;;5129045;27;20421;-72
2023/01/18 08:06:21;;;;;;;24.50;13.10;;;1.30;99.90;;;;;;5133915;27;20313;-74
2023/01/18 08:08:50;;;;;;;27.07;15.53;;;1.30;99.90;;;;;;5136770;27;20195;-72
2023/01/18 08:11:21;;;;;;;26.87;13.30;;;1.40;99.90;;;;;;5136481;27;20266;-72
2023/01/18 08:13:51;;;;;;;22.07;14.50;;;1.40;99.90;;;;;;5109363;27;20202;-71
2023/01/18 08:16:20;;;;;;;21.50;12.90;;;1.50;99.90;;;;;;5123282;27;20241;-72
2023/01/18 08:18:49;;;;;;;28.77;15.87;;;1.60;99.90;;;;;;5131361;27;20214;-71
2023/01/18 08:21:19;;;;;;;35.60;18.13;;;1.60;99.90;;;;;;5130537;27;20195;-70
2023/01/18 08:23:47;;;;;;;25.77;13.97;;;1.70;99.90;;;;;;5127026;27;20244;-71
2023/01/18 08:26:16;;;;;;;16.40;11.03;;;1.80;99.90;;;;;;5136080;27;20230;-72
2023/01/18 08:28:47;;;;;;;16.33;11.63;;;1.70;99.90;;;;;;5135927;27;20279;-72
2023/01/18 08:31:18;;;;;;;22.23;13.73;;;1.80;99.90;;;;;;5135921;27;20274;-73
2023/01/18 08:33:49;;;;;;;21.17;14.43;;;1.70;99.90;;;;;;5135527;27;20198;-71
2023/01/18 08:36:20;;;;;;;23.33;16.27;;;1.80;99.90;;;;;;5135052;27;20192;-72
2023/01/18 08:38:50;;;;;;;42.73;26.30;;;1.90;99.90;;;;;;5135204;27;20737;-71
2023/01/18 08:41:20;;;;;;;55.13;35.93;;;1.80;99.90;;;;;;5135681;27;20209;-74
2023/01/18 08:43:51;;;;;;;64.47;38.93;;;1.80;99.90;;;;;;5136165;27;20576;-71
2023/01/18 08:46:20;;;;;;;81.27;47.23;;;1.90;99.90;;;;;;5135373;27;20222;-72
2023/01/18 08:48:50;;;;;;;95.67;50.10;;;2.00;99.90;;;;;;5135836;27;20552;-72
2023/01/18 08:51:21;;;;;;;96.47;51.87;;;2.10;99.90;;;;;;5135397;27;20195;-72
2023/01/18 08:53:53;;;;;;;125.43;69.07;;;2.10;99.90;;;;;;5135742;27;20236;-72
2023/01/18 08:56:22;;;;;;;119.67;69.90;;;2.10;99.90;;;;;;5114256;28;20196;-73
2023/01/18 08:58:52;;;;;;;117.20;64.53;;;2.20;99.90;;;;;;5100598;28;20201;-72
2023/01/18 09:01:22;;;;;;;113.53;60.73;;;2.40;99.90;;;;;;5108983;28;20196;-72
2023/01/18 09:03:54;;;;;;;114.07;62.83;;;2.50;99.90;;;;;;5113408;28;20237;-74
2023/01/18 09:06:24;;;;;;;127.20;65.37;;;2.60;99.90;;;;;;5094013;28;20224;-73
2023/01/18 09:08:53;;;;;;;149.37;74.57;;;2.60;99.90;;;;;;5076292;28;20563;-72
2023/01/18 09:11:22;;;;;;;173.53;81.90;;;2.80;99.90;;;;;;5098387;28;20199;-70
2023/01/18 09:13:55;;;;;;;170.10;85.53;;;2.80;99.90;;;;;;5114539;28;20195;-71
2023/01/18 09:16:29;;;;;;;172.30;90.40;;;2.80;99.90;;;;;;5114005;28;20192;-72
2023/01/18 09:19:00;;;;;;;165.07;89.30;;;2.80;99.90;;;;;;5092789;28;20283;-72
2023/01/18 09:21:29;;;;;;;181.07;97.07;;;2.70;99.90;;;;;;5111276;28;20203;-72
2023/01/18 09:23:58;;;;;;;209.50;108.47;;;2.70;99.90;;;;;;5114436;28;20658;-71
2023/01/18 09:26:29;;;;;;;212.70;112.07;;;2.70;99.90;;;;;;5104001;28;20222;-71
2023/01/18 09:28:59;;;;;;;149.70;86.03;;;2.70;99.90;;;;;;5114489;28;20546;-72
2023/01/18 09:31:29;;;;;;;136.63;76.17;;;2.80;99.90;;;;;;5095468;28;20605;-73
2023/01/18 09:34:07;;;;;;;134.60;72.53;;;2.90;99.90;;;;;;5114261;28;20687;-71
2023/01/18 09:36:49;;;;;;;94.57;54.40;;;3.00;99.90;;;;;;5114146;28;20196;-71
2023/01/18 09:39:19;;;;;;;108.37;59.50;;;3.00;99.90;;;;;;5114583;28;20276;-71
2023/01/18 09:41:52;;;;;;;176.13;91.17;;;3.10;99.90;;;;;;5114300;28;20560;-72
2023/01/18 09:44:28;;;;;;;153.07;86.73;;;3.00;99.90;;;;;;5107362;28;20312;-73
2023/01/18 09:47:01;;;;;;;150.10;75.77;;;2.60;99.90;;;;;;5108364;28;20267;-72
2023/01/18 09:49:37;;;;;;;150.00;85.13;;;2.70;99.90;;;;;;5113938;28;20223;-69
2023/01/18 09:52:20;;;;;;;139.47;68.90;;;2.90;99.90;;;;;;5113810;28;20677;-71
2023/01/18 09:54:53;;;;;;;127.23;71.67;;;3.00;99.90;;;;;;5121609;27;20330;-71
2023/01/18 09:57:36;;;;;;;141.57;75.40;;;3.20;99.90;;;;;;5129164;27;20197;-71
2023/01/18 10:00:18;;;;;;;182.10;84.43;;;3.30;99.90;;;;;;5115989;27;20790;-70
2023/01/18 10:02:51;;;;;;;100.40;53.70;;;3.50;99.90;;;;;;5134026;27;20722;-72
2023/01/18 10:05:24;;;;;;;99.17;56.33;;;3.40;99.90;;;;;;5113631;28;20226;-70
2023/01/18 10:08:02;;;;;;;95.63;50.60;;;3.50;99.90;;;;;;5103281;27;20636;-70
2023/01/18 10:10:37;;;;;;;78.77;48.23;;;3.60;99.90;;;;;;5133664;27;20531;-71
2023/01/18 10:13:39;;;;;;;89.30;48.10;;;3.80;99.90;;;;;;5147430;27;20207;-70
2023/01/18 10:16:14;;;;;;;107.43;58.67;;;3.90;99.90;;;;;;5115839;27;20192;-70
2023/01/18 10:18:47;;;;;;;115.73;64.60;;;4.00;99.90;;;;;;5133957;27;20197;-71
2023/01/18 10:21:22;;;;;;;106.90;60.40;;;4.10;99.90;;;;;;5113411;27;20205;-72
2023/01/18 10:24:05;;;;;;;119.07;67.57;;;4.20;99.90;;;;;;5113496;28;20307;-71
2023/01/18 10:26:38;;;;;;;112.43;63.33;;;4.30;99.90;;;;;;5110909;28;20759;-71
2023/01/18 10:29:16;;;;;;;123.00;66.07;;;4.20;99.90;;;;;;5112757;28;20204;-69
2023/01/18 10:31:57;;;;;;;102.20;55.30;;;4.10;99.90;;;;;;5112171;28;20237;-70
2023/01/18 10:34:31;;;;;;;107.57;56.03;;;4.10;99.90;;;;;;5113201;28;20188;-70
2023/01/18 10:37:13;;;;;;;121.37;64.13;;;4.10;99.90;;;;;;5117899;27;20206;-70
2023/01/18 10:39:47;;;;;;;116.80;66.00;;;3.90;99.90;;;;;;5133845;27;20276;-70
2023/01/18 10:42:21;;;;;;;123.23;65.60;;;3.90;99.90;;;;;;5131128;27;20214;-68
2023/01/18 10:44:51;;;;;;;118.23;66.10;;;3.90;99.90;;;;;;5132361;27;20218;-71
2023/01/18 10:47:21;;;;;;;123.97;70.37;;;3.90;99.90;;;;;;5133350;27;20228;-72
2023/01/18 10:50:00;;;;;;;123.13;68.07;;;4.10;99.90;;;;;;5133412;27;20250;-73
2023/01/18 10:52:31;;;;;;;117.17;69.77;;;4.20;99.90;;;;;;5118665;27;20273;-71
2023/01/18 10:55:01;;;;;;;127.23;71.77;;;4.30;99.90;;;;;;5122243;27;20595;-71
2023/01/18 10:57:32;;;;;;;124.47;71.40;;;4.40;99.90;;;;;;5119972;27;20281;-71
2023/01/18 11:00:04;;;;;;;137.93;74.57;;;4.40;99.90;;;;;;5132814;27;20201;-71
2023/01/18 11:02:37;;;;;;;133.43;73.77;;;4.40;99.90;;;;;;5133180;27;20203;-70
2023/01/18 11:05:28;;;;;;;137.43;75.30;;;4.50;99.90;;;;;;5133194;27;20195;-71
2023/01/18 11:08:22;;;;;;;124.70;69.03;;;4.50;99.90;;;;;;5133338;27;20262;-71
2023/01/18 11:11:02;;;;;;;114.07;67.10;;;4.50;99.90;;;;;;5133416;27;20205;-70
2023/01/18 11:13:35;;;;;;;118.50;69.20;;;4.60;99.90;;;;;;5132918;27;20592;-70
2023/01/18 11:16:12;;;;;;;112.17;67.87;;;4.70;99.90;;;;;;5113519;28;20724;-69
2023/01/18 11:19:01;;;;;;;118.07;67.50;;;4.80;99.90;;;;;;5132955;28;20212;-70
2023/01/18 11:21:44;;;;;;;120.43;69.37;;;4.90;99.90;;;;;;5132819;28;20244;-70
2023/01/18 11:24:16;;;;;;;101.80;58.53;;;5.00;99.90;;;;;;5132177;27;20676;-69
2023/01/18 11:27:00;;;;;;;93.37;55.17;;;5.00;99.90;;;;;;5132448;27;20230;-70
2023/01/18 11:29:31;;;;;;;95.97;52.87;;;4.90;99.90;;;;;;5121673;28;20198;-70
2023/01/18 11:32:07;;;;;;;102.60;57.93;;;4.90;99.90;;;;;;5131341;28;20216;-73
2023/01/18 11:34:39;;;;;;;107.90;59.87;;;5.00;99.90;;;;;;5117652;28;20659;-73
2023/01/18 11:37:29;;;;;;;98.70;59.60;;;5.00;99.90;;;;;;5112108;28;20199;-71
2023/01/18 11:39:58;;;;;;;97.60;54.40;;;5.10;99.90;;;;;;5115445;27;20289;-73
2023/01/18 11:42:29;;;;;;;92.30;52.80;;;5.10;99.90;;;;;;5141726;27;20205;-72
2023/01/18 11:45:11;;;;;;;80.63;46.67;;;5.10;99.90;;;;;;5132807;28;20225;-72
2023/01/18 11:47:58;;;;;;;81.47;46.20;;;5.00;99.90;;;;;;5114270;28;20309;-78
2023/01/18 11:50:34;;;;;;;71.67;42.77;;;4.90;99.90;;;;;;5132670;28;20201;-71
2023/01/18 11:53:15;;;;;;;71.70;43.60;;;4.90;99.90;;;;;;5132648;28;20274;-71
2023/01/18 11:55:55;;;;;;;83.20;48.00;;;5.00;99.90;;;;;;5132596;28;20229;-71
2023/01/18 11:58:27;;;;;;;116.47;64.53;;;5.00;99.90;;;;;;5132722;28;20246;-71
2023/01/18 12:01:10;;;;;;;133.40;71.47;;;5.00;99.90;;;;;;5131837;28;20197;-71
2023/01/18 12:03:54;;;;;;;111.23;62.57;;;5.00;99.90;;;;;;5132457;28;20193;-71
2023/01/18 12:06:40;;;;;;;94.33;52.07;;;5.00;99.90;;;;;;5132432;28;20199;-73
2023/01/18 12:09:31;;;;;;;81.47;45.10;;;5.10;99.90;;;;;;5132590;28;20218;-72
2023/01/18 12:12:28;;;;;;;63.23;35.67;;;5.10;99.90;;;;;;5132475;28;20185;-72
2023/01/18 12:15:09;;;;;;;72.30;40.30;;;5.00;99.90;;;;;;5048890;28;20212;-72
2023/01/18 12:17:51;;;;;;;78.57;47.23;;;4.90;99.90;;;;;;5050743;28;20215;-73
2023/01/18 12:20:48;;;;;;;61.10;38.10;;;4.90;99.90;;;;;;5029166;28;20213;-72
2023/01/18 12:24:01;;;;;;;82.00;44.97;;;5.00;99.90;;;;;;5029025;28;20260;-74
2023/01/18 12:26:50;;;;;;;66.87;38.37;;;5.10;99.90;;;;;;4974869;28;20587;-76
2023/01/18 12:29:41;;;;;;;60.27;36.90;;;4.90;99.90;;;;;;4989644;28;20239;-71
2023/01/18 12:32:31;;;;;;;58.67;33.90;;;4.80;99.90;;;;;;4913937;29;20673;-71
2023/01/18 12:35:23;;;;;;;57.07;34.13;;;4.80;99.90;;;;;;4915604;29;20744;-71
2023/01/18 12:38:00;;;;;;;71.53;40.57;;;4.70;99.90;;;;;;4897377;29;20210;-71
2023/01/18 12:40:43;;;;;;;73.33;42.97;;;4.80;99.90;;;;;;4897480;29;20209;-71
2023/01/18 12:43:29;;;;;;;69.93;39.93;;;4.70;99.90;;;;;;4897184;29;20258;-70
2023/01/18 12:46:05;;;;;;;73.10;40.17;;;4.60;99.90;;;;;;4897061;29;20738;-71
2023/01/18 12:48:47;;;;;;;66.20;37.87;;;4.70;99.90;;;;;;4897152;29;20308;-72
2023/01/18 12:51:20;;;;;;;64.83;36.67;;;4.70;99.90;;;;;;4908287;29;20218;-72
2023/01/18 12:53:54;;;;;;;66.77;38.77;;;4.60;99.90;;;;;;4954113;28;20303;-70
2023/01/18 12:56:31;;;;;;;78.40;42.40;;;4.70;99.90;;;;;;4954036;28;20302;-73
2023/01/18 12:59:04;;;;;;;86.60;50.53;;;4.60;99.90;;;;;;4954207;28;20230;-72
2023/01/18 13:01:42;;;;;;;79.57;45.90;;;4.70;99.90;;;;;;4964352;28;20711;-74
2023/01/18 13:04:18;;;;;;;73.67;42.97;;;4.70;99.90;;;;;;5035639;28;20270;-71
2023/01/18 13:06:51;;;;;;;83.13;47.53;;;4.70;99.90;;;;;;5033959;28;20215;-71
2023/01/18 13:09:24;;;;;;;79.77;45.10;;;4.70;99.90;;;;;;5062314;28;20233;-71
2023/01/18 13:11:57;;;;;;;68.63;42.17;;;4.70;99.90;;;;;;5086441;28;20286;-70
2023/01/18 13:14:33;;;;;;;73.43;42.57;;;4.70;99.90;;;;;;5103638;28;20635;-71
2023/01/18 13:17:09;;;;;;;77.00;41.20;;;4.70;99.90;;;;;;5114848;28;20202;-79
2023/01/18 13:19:43;;;;;;;66.63;40.10;;;4.60;99.90;;;;;;5114455;28;20744;-72
2023/01/18 13:22:27;;;;;;;69.50;40.23;;;4.50;99.90;;;;;;5114465;28;20222;-71
2023/01/18 13:25:22;;;;;;;59.03;35.47;;;4.40;99.90;;;;;;5114220;28;20218;-78
2023/01/18 13:28:05;;;;;;;62.37;33.60;;;4.40;99.90;;;;;;5114030;28;20194;-72
2023/01/18 13:30:51;;;;;;;59.83;35.13;;;4.40;99.90;;;;;;5114232;28;20226;-72
2023/01/18 13:33:25;;;;;;;79.73;43.40;;;4.40;99.90;;;;;;5114262;28;20217;-77
2023/01/18 13:35:56;;;;;;;86.33;46.43;;;4.30;99.90;;;;;;5113803;28;20193;-72
2023/01/18 13:38:28;;;;;;;85.20;43.57;;;4.30;99.90;;;;;;5114192;28;20216;-72
2023/01/18 13:41:11;;;;;;;61.97;37.50;;;4.40;99.90;;;;;;5114149;27;20202;-72